Terminal Aerodrome Forecast
Issued by NWS

Home | Current Version | Previous Version | Graphics & Text | Print | Product List | Glossary Off
Versions: 1 2 3 4 5 6 7 8 9 10 11 12

000
FTUS43 KICT 220500
TAFSLN
TAF
KSLN 220520Z 2206/2306 19012KT P6SM BKN250
     FM221400 20015G25KT P6SM BKN250
     FM230200 18005KT P6SM BKN120=

USA.gov is the U.S. government's official web portal to all federal, state and local government web resources and services.